Time;durP1;ratioP1;P1;durP2;ratioP2;P2;SDS_P1;SDS_P2;PMS_P1;PMS_P2;Temp;Humidity;BMP_temperature;BMP_pressure;BME280_temperature;BME280_humidity;BME280_pressure;Samples;Min_cycle;Max_cycle;Signal;HPM_P1;HPM_P2
2021/04/12 00:00:12;;;;;;;;;36.25;34.50;;;;;;;;3724394;37;20970;-58
2021/04/12 00:02:46;;;;;;;;;43.25;37.75;;;;;;;;3724377;37;20957;-58
2021/04/12 00:05:22;;;;;;;;;43.75;37.00;;;;;;;;3724807;37;20947;-57
2021/04/12 00:08:14;;;;;;;;;48.50;37.00;;;;;;;;3724901;38;20942;-57
2021/04/12 00:10:43;;;;;;;;;41.25;33.00;;;;;;;;3724720;37;20977;-57
2021/04/12 00:13:13;;;;;;;;;47.50;39.50;;;;;;;;3724731;38;20968;-58
2021/04/12 00:15:49;;;;;;;;;43.50;35.75;;;;;;;;3724700;37;20953;-58
2021/04/12 00:18:21;;;;;;;;;43.50;38.00;;;;;;;;3724864;37;20953;-58
2021/04/12 00:20:53;;;;;;;;;41.25;36.50;;;;;;;;3724951;37;20931;-58
2021/04/12 00:23:56;;;;;;;;;42.50;38.00;;;;;;;;3725020;37;20949;-59
2021/04/12 00:26:33;;;;;;;;;37.50;33.50;;;;;;;;3725304;38;20934;-58
2021/04/12 00:29:14;;;;;;;;;35.75;32.75;;;;;;;;3724723;38;20933;-57
2021/04/12 00:31:54;;;;;;;;;42.50;35.00;;;;;;;;3724931;38;20995;-58
2021/04/12 00:34:45;;;;;;;;;31.25;27.25;;;;;;;;3724807;37;20943;-59
2021/04/12 00:37:18;;;;;;;;;37.25;29.50;;;;;;;;3724748;38;20947;-58
2021/04/12 00:39:56;;;;;;;;;37.25;34.50;;;;;;;;3724919;38;20927;-58
2021/04/12 00:42:40;;;;;;;;;41.00;33.00;;;;;;;;3724519;38;20930;-59
2021/04/12 00:45:24;;;;;;;;;27.00;25.25;;;;;;;;3724667;38;20941;-59
2021/04/12 00:47:56;;;;;;;;;44.00;30.50;;;;;;;;3724861;37;21017;-58
2021/04/12 00:50:35;;;;;;;;;31.75;25.50;;;;;;;;3724751;38;20913;-57
2021/04/12 00:53:19;;;;;;;;;35.75;34.25;;;;;;;;3724835;37;20903;-58
2021/04/12 00:55:49;;;;;;;;;46.25;35.50;;;;;;;;3724606;38;20941;-58
2021/04/12 00:58:22;;;;;;;;;37.00;35.00;;;;;;;;3724732;37;20907;-58
2021/04/12 01:00:55;;;;;;;;;36.75;33.75;;;;;;;;3724910;37;20903;-59
2021/04/12 01:03:39;;;;;;;;;38.25;35.50;;;;;;;;3724384;38;20869;-58
2021/04/12 01:06:16;;;;;;;;;45.75;38.25;;;;;;;;3724783;37;20852;-58
2021/04/12 01:09:10;;;;;;;;;41.00;37.50;;;;;;;;3724697;37;20900;-57
2021/04/12 01:11:55;;;;;;;;;50.25;40.25;;;;;;;;3724844;37;20880;-57
2021/04/12 01:14:38;;;;;;;;;47.00;37.50;;;;;;;;3724805;38;20890;-58
2021/04/12 01:17:28;;;;;;;;;39.00;34.50;;;;;;;;3724766;37;20916;-58
2021/04/12 01:20:13;;;;;;;;;45.25;35.75;;;;;;;;3724818;38;20861;-58
2021/04/12 01:23:08;;;;;;;;;45.75;37.75;;;;;;;;3724949;37;20879;-58
2021/04/12 01:26:11;;;;;;;;;41.00;34.50;;;;;;;;3725043;37;20878;-57
2021/04/12 01:28:58;;;;;;;;;35.25;30.00;;;;;;;;3724903;38;20856;-58
2021/04/12 01:31:46;;;;;;;;;38.75;32.25;;;;;;;;3724929;37;20874;-60
2021/04/12 01:34:35;;;;;;;;;39.50;32.25;;;;;;;;3724956;37;20849;-58
2021/04/12 01:37:13;;;;;;;;;32.75;29.50;;;;;;;;3724527;38;20850;-58
2021/04/12 01:40:02;;;;;;;;;42.50;35.00;;;;;;;;3724862;37;20848;-58
2021/04/12 01:42:38;;;;;;;;;41.25;34.50;;;;;;;;3724566;38;20824;-56
2021/04/12 01:45:23;;;;;;;;;36.75;30.75;;;;;;;;3724328;37;20834;-58
2021/04/12 01:48:04;;;;;;;;;35.75;32.00;;;;;;;;3724801;37;20837;-59
2021/04/12 01:50:48;;;;;;;;;41.00;38.50;;;;;;;;3724455;37;20915;-59
2021/04/12 01:53:33;;;;;;;;;36.00;34.50;;;;;;;;3724839;37;20838;-57
2021/04/12 01:56:17;;;;;;;;;42.50;34.25;;;;;;;;3724864;37;20847;-58
2021/04/12 01:59:03;;;;;;;;;36.75;31.50;;;;;;;;3724757;37;20843;-58
2021/04/12 02:01:56;;;;;;;;;41.75;36.25;;;;;;;;3725051;37;20838;-59
2021/04/12 02:04:44;;;;;;;;;39.00;33.25;;;;;;;;3724955;38;20814;-59
2021/04/12 02:07:39;;;;;;;;;42.75;37.75;;;;;;;;3724463;37;20831;-59
2021/04/12 02:10:29;;;;;;;;;44.00;37.00;;;;;;;;3724956;37;21802;-59
2021/04/12 02:13:01;;;;;;;;;41.25;35.75;;;;;;;;3724819;38;21794;-58
2021/04/12 02:15:42;;;;;;;;;48.25;37.75;;;;;;;;3724918;38;20803;-59
2021/04/12 02:18:31;;;;;;;;;31.75;28.00;;;;;;;;3724900;38;20828;-58
2021/04/12 02:21:05;;;;;;;;;23.00;18.25;;;;;;;;3724732;38;21794;-59
2021/04/12 02:23:37;;;;;;;;;32.00;28.25;;;;;;;;3724923;38;21757;-58
2021/04/12 02:26:31;;;;;;;;;41.25;35.00;;;;;;;;3724999;37;21775;-58
2021/04/12 02:29:18;;;;;;;;;38.50;35.50;;;;;;;;3724802;38;21780;-58
2021/04/12 02:32:03;;;;;;;;;16.25;11.50;;;;;;;;3725013;38;21791;-58
2021/04/12 02:34:44;;;;;;;;;33.50;29.00;;;;;;;;3724944;37;21745;-59
2021/04/12 02:37:45;;;;;;;;;36.75;34.75;;;;;;;;3724897;37;21760;-58
2021/04/12 02:40:27;;;;;;;;;38.50;34.00;;;;;;;;3724967;37;21753;-57
2021/04/12 02:43:12;;;;;;;;;39.25;30.50;;;;;;;;3724819;37;21774;-58
2021/04/12 02:46:10;;;;;;;;;44.75;38.00;;;;;;;;3724788;37;21710;-58
2021/04/12 02:48:45;;;;;;;;;34.25;29.00;;;;;;;;3724635;37;21757;-58
2021/04/12 02:51:30;;;;;;;;;41.00;35.00;;;;;;;;3724951;38;21723;-57
2021/04/12 02:54:19;;;;;;;;;37.50;32.75;;;;;;;;3724895;37;21726;-59
2021/04/12 02:56:58;;;;;;;;;39.25;38.25;;;;;;;;3724993;37;21767;-57
2021/04/12 02:59:50;;;;;;;;;42.25;39.75;;;;;;;;3724980;38;21733;-58
2021/04/12 03:02:34;;;;;;;;;34.50;28.75;;;;;;;;3724924;37;21727;-58
2021/04/12 03:05:18;;;;;;;;;32.50;31.25;;;;;;;;3725065;38;21768;-58
2021/04/12 03:08:07;;;;;;;;;33.00;32.00;;;;;;;;3724839;37;21733;-57
2021/04/12 03:10:46;;;;;;;;;43.00;28.75;;;;;;;;3724902;38;21742;-58
2021/04/12 03:13:33;;;;;;;;;36.00;30.00;;;;;;;;3725001;38;21709;-59
2021/04/12 03:16:33;;;;;;;;;30.25;26.75;;;;;;;;3725448;37;21733;-58
2021/04/12 03:19:24;;;;;;;;;36.75;33.00;;;;;;;;3725861;37;21731;-59
2021/04/12 03:22:08;;;;;;;;;38.75;37.25;;;;;;;;3724722;37;21710;-58
2021/04/12 03:24:52;;;;;;;;;53.25;36.25;;;;;;;;3724637;38;21732;-60
2021/04/12 03:27:44;;;;;;;;;39.75;33.25;;;;;;;;3724842;37;21735;-58
2021/04/12 03:30:33;;;;;;;;;38.25;33.50;;;;;;;;3724919;38;21693;-59
2021/04/12 03:33:15;;;;;;;;;46.00;40.00;;;;;;;;3724948;38;21687;-58
2021/04/12 03:35:50;;;;;;;;;53.25;45.25;;;;;;;;3724700;37;21672;-58
2021/04/12 03:38:24;;;;;;;;;40.25;37.25;;;;;;;;3725191;38;21713;-59
2021/04/12 03:41:12;;;;;;;;;40.25;33.00;;;;;;;;3725182;37;21682;-59
2021/04/12 03:43:56;;;;;;;;;9.00;4.00;;;;;;;;3725059;37;21732;-60
2021/04/12 03:46:29;;;;;;;;;51.00;37.50;;;;;;;;3724987;37;21611;-58
2021/04/12 03:49:27;;;;;;;;;42.00;37.50;;;;;;;;3724431;38;21675;-59
2021/04/12 03:52:27;;;;;;;;;44.25;36.50;;;;;;;;3724960;38;21663;-59
2021/04/12 03:55:16;;;;;;;;;37.75;33.25;;;;;;;;3725076;38;21682;-59
2021/04/12 03:57:57;;;;;;;;;42.75;37.50;;;;;;;;3725535;37;21682;-59
2021/04/12 04:00:43;;;;;;;;;40.75;36.00;;;;;;;;3725176;37;21679;-59
2021/04/12 04:03:27;;;;;;;;;42.75;37.50;;;;;;;;3725344;37;21666;-59
2021/04/12 04:06:11;;;;;;;;;39.50;38.75;;;;;;;;3725033;37;21677;-58
2021/04/12 04:08:49;;;;;;;;;40.00;36.25;;;;;;;;3724818;37;21688;-58
2021/04/12 04:11:38;;;;;;;;;39.25;33.25;;;;;;;;3724887;38;21619;-60
2021/04/12 04:14:11;;;;;;;;;55.25;43.00;;;;;;;;3724796;38;21655;-59
2021/04/12 04:17:06;;;;;;;;;58.00;45.75;;;;;;;;3724896;37;21638;-58
2021/04/12 04:19:58;;;;;;;;;53.75;43.75;;;;;;;;3725097;37;21645;-61
2021/04/12 04:22:42;;;;;;;;;69.50;51.25;;;;;;;;3725123;38;21628;-59
2021/04/12 04:25:37;;;;;;;;;49.75;42.00;;;;;;;;3725142;38;21631;-58
2021/04/12 04:28:31;;;;;;;;;46.75;35.75;;;;;;;;3724716;38;21625;-60
2021/04/12 04:31:24;;;;;;;;;53.50;44.00;;;;;;;;3724981;37;21617;-58
2021/04/12 04:34:13;;;;;;;;;64.50;49.75;;;;;;;;3725070;38;21609;-59
2021/04/12 04:36:54;;;;;;;;;71.75;57.25;;;;;;;;3724971;38;21599;-59
2021/04/12 04:39:44;;;;;;;;;71.75;56.50;;;;;;;;3725248;37;18431;-59
2021/04/12 04:42:28;;;;;;;;;80.50;63.50;;;;;;;;3725041;37;18459;-60
2021/04/12 04:45:02;;;;;;;;;92.25;68.00;;;;;;;;3724863;37;18456;-58
2021/04/12 04:47:53;;;;;;;;;88.25;62.50;;;;;;;;3725321;37;18437;-60
2021/04/12 04:50:37;;;;;;;;;59.50;47.25;;;;;;;;3725266;37;18445;-59
2021/04/12 04:53:16;;;;;;;;;56.25;45.00;;;;;;;;3724671;38;21682;-59
2021/04/12 04:55:53;;;;;;;;;62.00;47.50;;;;;;;;3725144;38;21573;-58
2021/04/12 04:58:25;;;;;;;;;57.25;46.00;;;;;;;;3724919;38;21581;-57
2021/04/12 05:00:57;;;;;;;;;59.25;49.00;;;;;;;;3724972;38;21585;-59
2021/04/12 05:03:51;;;;;;;;;60.00;42.25;;;;;;;;3725139;37;21587;-60
2021/04/12 05:06:34;;;;;;;;;48.75;40.25;;;;;;;;3725036;38;21558;-60
2021/04/12 05:09:19;;;;;;;;;47.25;41.00;;;;;;;;3725246;37;21614;-59
2021/04/12 05:12:01;;;;;;;;;48.75;40.75;;;;;;;;3724641;37;21590;-59
2021/04/12 05:14:45;;;;;;;;;48.00;39.00;;;;;;;;3724431;37;21543;-59
2021/04/12 05:17:46;;;;;;;;;37.75;36.25;;;;;;;;3724826;38;21583;-60
2021/04/12 05:20:46;;;;;;;;;45.00;40.75;;;;;;;;3725039;37;21547;-61
2021/04/12 05:23:32;;;;;;;;;47.75;40.25;;;;;;;;3724992;37;21533;-57
2021/04/12 05:26:16;;;;;;;;;47.75;41.25;;;;;;;;3725080;38;21658;-59
2021/04/12 05:29:00;;;;;;;;;56.75;46.00;;;;;;;;3723828;37;21554;-61
2021/04/12 05:31:43;;;;;;;;;55.75;43.25;;;;;;;;3725093;37;21589;-58
2021/04/12 05:34:18;;;;;;;;;62.25;49.00;;;;;;;;3725091;37;21551;-57
2021/04/12 05:37:04;;;;;;;;;48.75;42.00;;;;;;;;3725163;37;21530;-58
2021/04/12 05:40:02;;;;;;;;;42.50;39.00;;;;;;;;3725125;37;21547;-59
2021/04/12 05:42:52;;;;;;;;;33.25;28.75;;;;;;;;3725121;37;21532;-59
2021/04/12 05:45:41;;;;;;;;;42.75;34.25;;;;;;;;3724690;38;21877;-59
2021/04/12 05:48:32;;;;;;;;;32.75;29.00;;;;;;;;3725100;38;21546;-58
2021/04/12 05:51:27;;;;;;;;;41.75;30.50;;;;;;;;3725341;38;21526;-58
2021/04/12 05:54:16;;;;;;;;;44.50;36.25;;;;;;;;3725193;37;21523;-59
2021/04/12 05:57:00;;;;;;;;;41.00;38.25;;;;;;;;3725155;37;21519;-57
2021/04/12 05:59:44;;;;;;;;;38.75;35.50;;;;;;;;3724973;37;21547;-58
2021/04/12 06:02:19;;;;;;;;;46.25;38.25;;;;;;;;3725091;38;21630;-59
2021/04/12 06:05:08;;;;;;;;;45.25;39.00;;;;;;;;3725042;38;21508;-60
2021/04/12 06:08:02;;;;;;;;;3.75;1.75;;;;;;;;3725248;37;21496;-59
2021/04/12 06:10:54;;;;;;;;;47.50;39.75;;;;;;;;3724967;37;21353;-59
2021/04/12 06:13:40;;;;;;;;;48.75;41.50;;;;;;;;3724932;38;21586;-59
2021/04/12 06:16:28;;;;;;;;;47.50;39.50;;;;;;;;3725084;37;21729;-58
2021/04/12 06:19:20;;;;;;;;;47.50;40.00;;;;;;;;3725109;38;21498;-59
2021/04/12 06:22:08;;;;;;;;;53.00;42.50;;;;;;;;3725048;38;21491;-60
2021/04/12 06:25:09;;;;;;;;;46.00;38.75;;;;;;;;3724988;38;21467;-60
2021/04/12 06:27:52;;;;;;;;;45.00;37.50;;;;;;;;3725386;37;21476;-59
2021/04/12 06:30:38;;;;;;;;;29.75;25.75;;;;;;;;3725171;38;21504;-60
2021/04/12 06:33:12;;;;;;;;;38.25;34.00;;;;;;;;3725238;38;21480;-60
2021/04/12 06:35:56;;;;;;;;;41.25;36.75;;;;;;;;3726356;38;21443;-61
2021/04/12 06:38:40;;;;;;;;;39.25;33.50;;;;;;;;3725461;37;21480;-60
2021/04/12 06:41:40;;;;;;;;;34.50;32.00;;;;;;;;3725242;37;21502;-59
2021/04/12 06:44:34;;;;;;;;;33.50;31.50;;;;;;;;3725073;38;21452;-61
2021/04/12 06:47:08;;;;;;;;;31.50;28.00;;;;;;;;3725032;38;21527;-60
2021/04/12 06:49:52;;;;;;;;;25.50;24.25;;;;;;;;3725124;37;21347;-62
2021/04/12 06:52:49;;;;;;;;;28.75;26.50;;;;;;;;3725234;37;21378;-61
2021/04/12 06:55:22;;;;;;;;;27.50;25.50;;;;;;;;3725117;38;21357;-61
2021/04/12 06:58:05;;;;;;;;;30.00;27.00;;;;;;;;3725122;37;21360;-61
2021/04/12 07:00:51;;;;;;;;;36.25;32.00;;;;;;;;3725105;37;21457;-61
2021/04/12 07:03:42;;;;;;;;;25.50;23.75;;;;;;;;3725132;38;21408;-62
2021/04/12 07:06:29;;;;;;;;;23.00;21.50;;;;;;;;3725060;37;21327;-59
2021/04/12 07:09:29;;;;;;;;;27.75;26.25;;;;;;;;3725109;37;21333;-61
2021/04/12 07:12:11;;;;;;;;;32.75;30.50;;;;;;;;3725006;38;21341;-61
2021/04/12 07:14:54;;;;;;;;;24.00;21.50;;;;;;;;3725095;38;21327;-61
2021/04/12 07:17:38;;;;;;;;;25.25;21.75;;;;;;;;3725114;37;21334;-61
2021/04/12 07:20:15;;;;;;;;;24.25;22.50;;;;;;;;3725024;38;21280;-62
2021/04/12 07:22:55;;;;;;;;;28.50;24.50;;;;;;;;3725085;38;21315;-61
2021/04/12 07:25:47;;;;;;;;;20.75;18.75;;;;;;;;3724892;38;21278;-61
2021/04/12 07:28:26;;;;;;;;;25.00;22.75;;;;;;;;3724552;38;21288;-61
2021/04/12 07:31:24;;;;;;;;;21.75;19.25;;;;;;;;3723043;37;21300;-60
2021/04/12 07:33:57;;;;;;;;;14.50;12.50;;;;;;;;3724844;38;21262;-61
2021/04/12 07:36:43;;;;;;;;;16.25;15.00;;;;;;;;3724512;38;21175;-61
2021/04/12 07:39:44;;;;;;;;;21.75;19.75;;;;;;;;3724952;37;21283;-61
2021/04/12 07:42:38;;;;;;;;;15.75;14.25;;;;;;;;3725033;37;21267;-60
2021/04/12 07:45:23;;;;;;;;;12.25;11.75;;;;;;;;3724947;38;21279;-61
2021/04/12 07:48:11;;;;;;;;;14.00;13.25;;;;;;;;3725068;38;21257;-60
2021/04/12 07:50:53;;;;;;;;;8.25;8.00;;;;;;;;3725121;37;21212;-60
2021/04/12 07:53:39;;;;;;;;;12.75;12.00;;;;;;;;3724996;38;21090;-59
2021/04/12 07:56:39;;;;;;;;;16.50;14.00;;;;;;;;3724919;38;21247;-61
2021/04/12 07:59:23;;;;;;;;;10.00;9.00;;;;;;;;3724885;37;21268;-60
2021/04/12 08:02:00;;;;;;;;;12.25;11.00;;;;;;;;3725051;37;21243;-59
2021/04/12 08:04:43;;;;;;;;;13.50;11.75;;;;;;;;3724979;38;21213;-60
2021/04/12 08:07:27;;;;;;;;;13.00;11.25;;;;;;;;3725000;38;21221;-62
2021/04/12 08:10:16;;;;;;;;;12.50;11.00;;;;;;;;3724877;38;21537;-60
2021/04/12 08:13:01;;;;;;;;;10.25;8.75;;;;;;;;3724882;38;21212;-60
2021/04/12 08:15:59;;;;;;;;;8.75;8.50;;;;;;;;3724886;37;21177;-60
2021/04/12 08:18:45;;;;;;;;;11.75;10.00;;;;;;;;3725003;38;21100;-61
2021/04/12 08:21:40;;;;;;;;;12.00;11.25;;;;;;;;3725084;37;21190;-61
2021/04/12 08:24:20;;;;;;;;;12.25;11.25;;;;;;;;3725111;38;21161;-61
2021/04/12 08:27:14;;;;;;;;;10.50;10.00;;;;;;;;3725090;38;21148;-60
2021/04/12 08:29:58;;;;;;;;;4.25;4.00;;;;;;;;3725055;38;21101;-59
2021/04/12 08:32:52;;;;;;;;;8.00;8.00;;;;;;;;3725209;37;21092;-59
2021/04/12 08:35:38;;;;;;;;;12.25;11.50;;;;;;;;3725080;38;21077;-60
2021/04/12 08:38:23;;;;;;;;;13.75;10.75;;;;;;;;3723547;38;21209;-62
2021/04/12 08:40:58;;;;;;;;;12.25;11.75;;;;;;;;3724849;38;21147;-59
2021/04/12 08:43:42;;;;;;;;;10.00;9.00;;;;;;;;3724931;37;21142;-62
2021/04/12 08:46:39;;;;;;;;;15.75;13.00;;;;;;;;3724719;37;21085;-61
2021/04/12 08:49:34;;;;;;;;;14.50;11.75;;;;;;;;3725048;38;21151;-60
2021/04/12 08:52:34;;;;;;;;;9.25;9.25;;;;;;;;3724978;37;21110;-60
2021/04/12 08:55:35;;;;;;;;;10.75;10.75;;;;;;;;3725104;38;21060;-63
2021/04/12 08:58:26;;;;;;;;;10.00;9.50;;;;;;;;3724959;38;21195;-61
2021/04/12 09:01:15;;;;;;;;;11.00;9.25;;;;;;;;3725042;38;21155;-61
2021/04/12 09:03:54;;;;;;;;;18.00;14.25;;;;;;;;3724968;37;21155;-60
2021/04/12 09:06:46;;;;;;;;;11.75;11.75;;;;;;;;3725084;37;21171;-61
2021/04/12 09:09:37;;;;;;;;;12.50;10.50;;;;;;;;3725482;37;21114;-61
2021/04/12 09:12:27;;;;;;;;;6.00;5.75;;;;;;;;3725580;38;21135;-61
2021/04/12 09:15:15;;;;;;;;;12.75;11.75;;;;;;;;3725138;38;20980;-61
2021/04/12 09:18:07;;;;;;;;;14.75;13.75;;;;;;;;3724923;38;21081;-62
2021/04/12 09:20:51;;;;;;;;;14.00;12.25;;;;;;;;3724954;37;21098;-60
2021/04/12 09:23:41;;;;;;;;;9.75;9.00;;;;;;;;3725163;38;21177;-61
2021/04/12 09:26:38;;;;;;;;;13.75;12.25;;;;;;;;3724964;37;21105;-61
2021/04/12 09:29:43;;;;;;;;;11.25;11.25;;;;;;;;3724967;38;21068;-65
2021/04/12 09:32:28;;;;;;;;;11.00;9.00;;;;;;;;3725108;37;21083;-61
2021/04/12 09:35:13;;;;;;;;;13.50;12.75;;;;;;;;3725095;37;20999;-59
2021/04/12 09:38:05;;;;;;;;;9.50;9.25;;;;;;;;3724948;37;21086;-62
2021/04/12 09:40:40;;;;;;;;;10.25;9.50;;;;;;;;3725024;38;21061;-60
2021/04/12 09:43:40;;;;;;;;;11.50;11.00;;;;;;;;3724857;37;21004;-63
2021/04/12 09:46:26;;;;;;;;;7.00;7.00;;;;;;;;3725711;38;21091;-60
2021/04/12 09:49:14;;;;;;;;;2.25;1.50;;;;;;;;3728578;37;20981;-60
2021/04/12 09:51:46;;;;;;;;;13.50;13.25;;;;;;;;3729457;38;21002;-60
2021/04/12 09:54:37;;;;;;;;;11.00;9.00;;;;;;;;3724821;37;21034;-60
2021/04/12 09:57:23;;;;;;;;;10.00;8.00;;;;;;;;3725238;37;21064;-62
2021/04/12 10:00:17;;;;;;;;;13.50;12.00;;;;;;;;3725107;37;21040;-60
2021/04/12 10:03:01;;;;;;;;;11.25;8.00;;;;;;;;3725087;38;21066;-61
2021/04/12 10:05:45;;;;;;;;;11.50;8.75;;;;;;;;3725130;38;21070;-62
2021/04/12 10:08:20;;;;;;;;;10.75;8.75;;;;;;;;3725205;38;21056;-62
2021/04/12 10:10:58;;;;;;;;;9.00;7.50;;;;;;;;3725338;37;20932;-61
2021/04/12 10:13:42;;;;;;;;;14.00;12.75;;;;;;;;3725553;37;20978;-61
2021/04/12 10:16:11;;;;;;;;;9.00;9.00;;;;;;;;3725186;37;21034;-61
2021/04/12 10:18:55;;;;;;;;;13.00;10.75;;;;;;;;3725314;38;21011;-60
2021/04/12 10:21:41;;;;;;;;;8.00;8.00;;;;;;;;3724911;37;21028;-61
2021/04/12 10:24:15;;;;;;;;;10.50;8.25;;;;;;;;3725235;37;20882;-61
2021/04/12 10:26:49;;;;;;;;;9.00;8.25;;;;;;;;3724928;37;20957;-61
2021/04/12 10:29:28;;;;;;;;;12.75;10.25;;;;;;;;3724903;37;20899;-62
2021/04/12 10:32:19;;;;;;;;;7.75;7.00;;;;;;;;3725191;37;20980;-62
2021/04/12 10:34:48;;;;;;;;;9.00;7.50;;;;;;;;3725284;38;20927;-62
2021/04/12 10:37:26;;;;;;;;;9.50;9.50;;;;;;;;3725265;38;20915;-60
2021/04/12 10:40:27;;;;;;;;;12.00;9.00;;;;;;;;3725269;37;20888;-61
2021/04/12 10:42:59;;;;;;;;;10.00;10.00;;;;;;;;3724972;38;20969;-60
2021/04/12 10:45:27;;;;;;;;;10.25;9.00;;;;;;;;3724968;37;21016;-61
2021/04/12 10:47:59;;;;;;;;;10.75;10.00;;;;;;;;3724888;38;20915;-60
2021/04/12 10:50:53;;;;;;;;;9.25;8.25;;;;;;;;3725066;37;20642;-61
2021/04/12 10:53:31;;;;;;;;;11.25;9.75;;;;;;;;3725052;38;20873;-61
2021/04/12 10:56:11;;;;;;;;;12.25;11.75;;;;;;;;3724987;38;20968;-60
2021/04/12 10:59:12;;;;;;;;;15.25;14.25;;;;;;;;3724369;37;20994;-61
2021/04/12 11:02:01;;;;;;;;;9.75;9.00;;;;;;;;3724450;38;21000;-62
2021/04/12 11:04:50;;;;;;;;;11.25;9.00;;;;;;;;3724577;37;20888;-62
2021/04/12 11:07:19;;;;;;;;;8.00;8.00;;;;;;;;3724897;37;20855;-62
2021/04/12 11:10:07;;;;;;;;;8.75;8.00;;;;;;;;3724667;38;20851;-61
2021/04/12 11:12:51;;;;;;;;;11.00;9.25;;;;;;;;3725050;37;20908;-63
2021/04/12 11:15:44;;;;;;;;;9.75;9.75;;;;;;;;3724803;38;20974;-62
2021/04/12 11:18:41;;;;;;;;;9.25;8.50;;;;;;;;3724721;37;20938;-61
2021/04/12 11:21:28;;;;;;;;;7.50;6.00;;;;;;;;3724634;37;20890;-61
2021/04/12 11:24:06;;;;;;;;;9.75;8.00;;;;;;;;3724411;38;20816;-61
2021/04/12 11:26:52;;;;;;;;;5.75;5.25;;;;;;;;3725278;38;20823;-61
2021/04/12 11:29:20;;;;;;;;;12.00;11.00;;;;;;;;3724735;38;20856;-60
2021/04/12 11:32:02;;;;;;;;;9.50;8.00;;;;;;;;3725065;37;20932;-61
2021/04/12 11:34:35;;;;;;;;;14.50;13.25;;;;;;;;3724928;38;20849;-60
2021/04/12 11:37:12;;;;;;;;;8.50;7.25;;;;;;;;3724988;37;20915;-60
2021/04/12 11:39:41;;;;;;;;;10.25;9.75;;;;;;;;3724700;37;20811;-60
2021/04/12 11:42:10;;;;;;;;;11.25;10.25;;;;;;;;3723576;38;20869;-61
2021/04/12 11:44:44;;;;;;;;;9.00;8.50;;;;;;;;3723888;37;20904;-63
2021/04/12 11:47:34;;;;;;;;;8.25;8.25;;;;;;;;3726011;38;20832;-60
2021/04/12 11:50:23;;;;;;;;;10.25;9.25;;;;;;;;3724525;37;20883;-61
2021/04/12 11:52:53;;;;;;;;;7.00;7.00;;;;;;;;3724955;38;20907;-63
2021/04/12 11:55:45;;;;;;;;;7.75;6.75;;;;;;;;3724773;37;20767;-61
2021/04/12 11:58:27;;;;;;;;;7.50;7.00;;;;;;;;3725167;37;20772;-62
2021/04/12 12:01:14;;;;;;;;;8.00;8.00;;;;;;;;3724953;38;20808;-61
2021/04/12 12:04:08;;;;;;;;;8.25;8.25;;;;;;;;3724979;38;20808;-60
2021/04/12 12:06:41;;;;;;;;;9.50;9.50;;;;;;;;3724801;38;20755;-62
2021/04/12 12:09:24;;;;;;;;;12.25;9.00;;;;;;;;3725048;38;20868;-62
2021/04/12 12:12:08;;;;;;;;;10.00;10.00;;;;;;;;3724450;37;20948;-61
2021/04/12 12:14:52;;;;;;;;;11.75;11.00;;;;;;;;3724790;38;20917;-61
2021/04/12 12:17:20;;;;;;;;;12.25;11.00;;;;;;;;3724821;38;20925;-63
2021/04/12 12:19:58;;;;;;;;;14.00;13.00;;;;;;;;3724779;37;20880;-61
2021/04/12 12:22:42;;;;;;;;;17.50;15.50;;;;;;;;3724579;37;20874;-61
2021/04/12 12:25:28;;;;;;;;;10.75;10.25;;;;;;;;3724873;38;20902;-60
2021/04/12 12:28:12;;;;;;;;;9.50;7.50;;;;;;;;3725005;37;20893;-60
2021/04/12 12:30:57;;;;;;;;;17.75;13.25;;;;;;;;3724950;38;20744;-61
2021/04/12 12:33:48;;;;;;;;;10.75;10.75;;;;;;;;3725025;37;21172;-61
2021/04/12 12:36:18;;;;;;;;;8.75;7.75;;;;;;;;3725063;38;20847;-61
2021/04/12 12:39:13;;;;;;;;;9.50;8.00;;;;;;;;3724674;37;20795;-63
2021/04/12 12:41:44;;;;;;;;;8.00;8.00;;;;;;;;3725246;38;20710;-62
2021/04/12 12:44:11;;;;;;;;;9.75;9.00;;;;;;;;3724977;37;20728;-62
2021/04/12 12:46:39;;;;;;;;;12.00;9.50;;;;;;;;3725066;37;20804;-61
2021/04/12 12:49:11;;;;;;;;;9.00;9.00;;;;;;;;3725090;37;20863;-61
2021/04/12 12:51:40;;;;;;;;;13.00;11.00;;;;;;;;3725129;37;20754;-61
2021/04/12 12:54:14;;;;;;;;;8.50;8.00;;;;;;;;3729344;37;20854;-62
2021/04/12 12:56:42;;;;;;;;;8.50;7.00;;;;;;;;3726530;37;20723;-60
2021/04/12 12:59:21;;;;;;;;;15.25;14.50;;;;;;;;3724853;37;20696;-61
2021/04/12 13:01:48;;;;;;;;;11.50;11.00;;;;;;;;3724929;37;20835;-61
2021/04/12 13:04:17;;;;;;;;;16.50;13.25;;;;;;;;3724908;37;20821;-60
2021/04/12 13:06:49;;;;;;;;;9.75;8.25;;;;;;;;3724522;37;20855;-61
2021/04/12 13:09:31;;;;;;;;;9.00;7.75;;;;;;;;3724768;37;20748;-61
2021/04/12 13:12:25;;;;;;;;;14.50;14.50;;;;;;;;3724932;38;20433;-61
2021/04/12 13:14:52;;;;;;;;;8.75;8.75;;;;;;;;3724785;38;20785;-60
2021/04/12 13:17:35;;;;;;;;;11.50;10.50;;;;;;;;3724852;38;20754;-61
2021/04/12 13:20:04;;;;;;;;;11.50;9.00;;;;;;;;3725103;37;20491;-60
2021/04/12 13:22:35;;;;;;;;;14.00;12.00;;;;;;;;3724838;38;20808;-63
2021/04/12 13:25:19;;;;;;;;;11.25;9.25;;;;;;;;3724629;37;20809;-64
2021/04/12 13:27:46;;;;;;;;;11.50;10.50;;;;;;;;3725043;37;20757;-61
2021/04/12 13:30:17;;;;;;;;;11.00;10.25;;;;;;;;3725068;38;20807;-63
2021/04/12 13:32:54;;;;;;;;;5.75;5.00;;;;;;;;3724805;38;20792;-61
2021/04/12 13:35:21;;;;;;;;;10.50;9.00;;;;;;;;3724690;37;20642;-61
2021/04/12 13:38:07;;;;;;;;;10.50;10.25;;;;;;;;3724891;38;20736;-61
2021/04/12 13:40:55;;;;;;;;;9.00;8.75;;;;;;;;3725144;37;20819;-59
2021/04/12 13:43:27;;;;;;;;;10.50;9.50;;;;;;;;3725079;37;20744;-59
2021/04/12 13:45:53;;;;;;;;;12.00;10.75;;;;;;;;3725107;38;20770;-65
2021/04/12 13:48:26;;;;;;;;;10.50;10.50;;;;;;;;3725053;37;20782;-65
2021/04/12 13:51:02;;;;;;;;;9.75;8.75;;;;;;;;3725237;37;20825;-66
2021/04/12 13:53:48;;;;;;;;;11.00;10.00;;;;;;;;3725054;38;20660;-62
2021/04/12 13:56:20;;;;;;;;;11.25;10.00;;;;;;;;3724936;38;20803;-60
2021/04/12 13:59:00;;;;;;;;;9.75;7.75;;;;;;;;3725127;37;20726;-62
2021/04/12 14:01:35;;;;;;;;;9.75;9.00;;;;;;;;3725143;37;20654;-60
2021/04/12 14:04:04;;;;;;;;;11.00;9.50;;;;;;;;3725095;37;20668;-62
2021/04/12 14:06:35;;;;;;;;;9.25;8.75;;;;;;;;3725103;37;20729;-61
2021/04/12 14:09:09;;;;;;;;;11.25;11.00;;;;;;;;3725197;37;20656;-61
2021/04/12 14:11:43;;;;;;;;;17.75;15.50;;;;;;;;3725092;38;20732;-60
2021/04/12 14:14:28;;;;;;;;;8.25;8.25;;;;;;;;3724765;38;20748;-62
2021/04/12 14:17:12;;;;;;;;;12.50;11.00;;;;;;;;3725214;37;20621;-61
2021/04/12 14:19:43;;;;;;;;;12.00;11.75;;;;;;;;3725953;37;20694;-61
2021/04/12 14:22:12;;;;;;;;;11.50;10.25;;;;;;;;3731102;37;20688;-60
2021/04/12 14:24:42;;;;;;;;;16.75;14.25;;;;;;;;3732431;37;20689;-61
2021/04/12 14:27:34;;;;;;;;;10.00;9.00;;;;;;;;3727860;37;20731;-62
2021/04/12 14:30:09;;;;;;;;;9.75;9.25;;;;;;;;3725997;37;20591;-61
2021/04/12 14:32:47;;;;;;;;;13.00;12.00;;;;;;;;3726714;38;20586;-60
2021/04/12 14:35:21;;;;;;;;;12.75;9.75;;;;;;;;3727169;38;21647;-61
2021/04/12 14:37:47;;;;;;;;;14.00;11.50;;;;;;;;3726969;38;21660;-64
2021/04/12 14:40:18;;;;;;;;;11.75;10.75;;;;;;;;3726112;37;20644;-62
2021/04/12 14:42:46;;;;;;;;;15.75;15.00;;;;;;;;3726456;38;17648;-60
2021/04/12 14:45:14;;;;;;;;;11.00;10.00;;;;;;;;3725961;37;21684;-61
2021/04/12 14:47:47;;;;;;;;;10.00;10.00;;;;;;;;3726443;37;21652;-62
2021/04/12 14:50:21;;;;;;;;;12.25;9.25;;;;;;;;3726528;38;21625;-61
2021/04/12 14:53:09;;;;;;;;;8.75;8.25;;;;;;;;3726117;38;21673;-61
2021/04/12 14:55:37;;;;;;;;;8.75;8.00;;;;;;;;3726555;38;21589;-61
2021/04/12 14:58:07;;;;;;;;;9.00;7.75;;;;;;;;3726416;37;21600;-61
2021/04/12 15:00:44;;;;;;;;;9.00;8.00;;;;;;;;3726545;38;21387;-63
2021/04/12 15:03:29;;;;;;;;;9.50;8.75;;;;;;;;3725996;37;21532;-60
2021/04/12 15:06:02;;;;;;;;;11.50;9.75;;;;;;;;3725239;37;21616;-60
2021/04/12 15:08:34;;;;;;;;;7.50;7.00;;;;;;;;3725305;38;21659;-61
2021/04/12 15:11:14;;;;;;;;;8.25;7.00;;;;;;;;3725491;38;21561;-62
2021/04/12 15:14:09;;;;;;;;;11.00;10.25;;;;;;;;3725354;37;21524;-60
2021/04/12 15:16:53;;;;;;;;;6.50;6.00;;;;;;;;3725406;37;21632;-60
2021/04/12 15:19:34;;;;;;;;;8.50;8.00;;;;;;;;3725334;37;21573;-60
2021/04/12 15:22:04;;;;;;;;;6.25;6.25;;;;;;;;3723670;38;21559;-60
2021/04/12 15:24:41;;;;;;;;;10.00;7.25;;;;;;;;3725026;37;21485;-63
2021/04/12 15:27:23;;;;;;;;;2.75;2.25;;;;;;;;3725117;38;21587;-60
2021/04/12 15:30:00;;;;;;;;;11.00;10.00;;;;;;;;3724945;37;21507;-62
2021/04/12 15:32:39;;;;;;;;;11.75;10.75;;;;;;;;3725206;38;21633;-62
2021/04/12 15:35:40;;;;;;;;;10.00;9.00;;;;;;;;3724939;38;21644;-61
2021/04/12 15:38:26;;;;;;;;;10.50;10.25;;;;;;;;3725023;37;21572;-61
2021/04/12 15:41:03;;;;;;;;;8.50;7.75;;;;;;;;3724841;38;21654;-60
2021/04/12 15:43:31;;;;;;;;;8.25;7.75;;;;;;;;3724901;37;21481;-62
2021/04/12 15:46:01;;;;;;;;;6.75;6.75;;;;;;;;3724640;38;21485;-61
2021/04/12 15:48:49;;;;;;;;;9.25;8.00;;;;;;;;3724904;37;21512;-62
2021/04/12 15:51:24;;;;;;;;;10.75;9.75;;;;;;;;3724844;38;21458;-62
2021/04/12 15:54:21;;;;;;;;;8.50;7.25;;;;;;;;3725005;38;21544;-62